sensor_id;sensor_type;location;lat;lon;timestamp;P1;durP1;ratioP1;P2;durP2;ratioP2
80213;SDS011;69531;37.974;23.708;2023-04-25T00:01:20;11.50;;;4.82;;
80213;SDS011;69531;37.974;23.708;2023-04-25T00:03:49;9.63;;;3.90;;
80213;SDS011;69531;37.974;23.708;2023-04-25T00:06:15;8.80;;;4.53;;
80213;SDS011;69531;37.974;23.708;2023-04-25T00:08:42;8.57;;;4.30;;
80213;SDS011;69531;37.974;23.708;2023-04-25T00:11:08;7.38;;;4.25;;
80213;SDS011;69531;37.974;23.708;2023-04-25T00:13:34;6.85;;;4.10;;
80213;SDS011;69531;37.974;23.708;2023-04-25T00:15:59;8.02;;;3.80;;
80213;SDS011;69531;37.974;23.708;2023-04-25T00:18:25;5.78;;;3.78;;
80213;SDS011;69531;37.974;23.708;2023-04-25T00:20:54;6.90;;;3.90;;
80213;SDS011;69531;37.974;23.708;2023-04-25T00:23:21;6.50;;;4.30;;
80213;SDS011;69531;37.974;23.708;2023-04-25T00:25:49;7.53;;;4.25;;
80213;SDS011;69531;37.974;23.708;2023-04-25T00:28:15;7.00;;;4.60;;
80213;SDS011;69531;37.974;23.708;2023-04-25T00:30:41;6.35;;;4.03;;
80213;SDS011;69531;37.974;23.708;2023-04-25T00:33:08;6.63;;;4.25;;
80213;SDS011;69531;37.974;23.708;2023-04-25T00:35:34;7.60;;;3.95;;
80213;SDS011;69531;37.974;23.708;2023-04-25T00:38:00;6.93;;;4.22;;
80213;SDS011;69531;37.974;23.708;2023-04-25T00:40:26;6.53;;;3.83;;
80213;SDS011;69531;37.974;23.708;2023-04-25T00:42:52;6.40;;;4.32;;
80213;SDS011;69531;37.974;23.708;2023-04-25T00:45:18;6.50;;;3.75;;
80213;SDS011;69531;37.974;23.708;2023-04-25T00:47:45;7.07;;;4.20;;
80213;SDS011;69531;37.974;23.708;2023-04-25T00:50:12;6.53;;;4.05;;
80213;SDS011;69531;37.974;23.708;2023-04-25T00:52:43;7.80;;;4.05;;
80213;SDS011;69531;37.974;23.708;2023-04-25T00:55:10;6.45;;;4.13;;
80213;SDS011;69531;37.974;23.708;2023-04-25T00:57:38;6.30;;;3.75;;
80213;SDS011;69531;37.974;23.708;2023-04-25T01:00:04;6.93;;;3.65;;
80213;SDS011;69531;37.974;23.708;2023-04-25T01:02:31;6.80;;;3.85;;
80213;SDS011;69531;37.974;23.708;2023-04-25T01:04:57;5.65;;;3.90;;
80213;SDS011;69531;37.974;23.708;2023-04-25T01:07:23;5.28;;;3.72;;
80213;SDS011;69531;37.974;23.708;2023-04-25T01:09:51;6.50;;;3.40;;
80213;SDS011;69531;37.974;23.708;2023-04-25T01:12:17;5.75;;;3.70;;
80213;SDS011;69531;37.974;23.708;2023-04-25T01:14:43;7.20;;;3.63;;
80213;SDS011;69531;37.974;23.708;2023-04-25T01:17:09;6.43;;;3.75;;
80213;SDS011;69531;37.974;23.708;2023-04-25T01:19:36;5.60;;;3.80;;
80213;SDS011;69531;37.974;23.708;2023-04-25T01:22:02;7.78;;;4.05;;
80213;SDS011;69531;37.974;23.708;2023-04-25T01:24:28;6.50;;;3.63;;
80213;SDS011;69531;37.974;23.708;2023-04-25T01:26:56;8.55;;;3.90;;
80213;SDS011;69531;37.974;23.708;2023-04-25T01:29:23;6.03;;;3.85;;
80213;SDS011;69531;37.974;23.708;2023-04-25T01:31:50;7.88;;;4.13;;
80213;SDS011;69531;37.974;23.708;2023-04-25T01:34:17;7.22;;;3.55;;
80213;SDS011;69531;37.974;23.708;2023-04-25T01:36:44;8.15;;;4.38;;
80213;SDS011;69531;37.974;23.708;2023-04-25T01:39:10;6.63;;;3.83;;
80213;SDS011;69531;37.974;23.708;2023-04-25T01:41:36;5.75;;;3.90;;
80213;SDS011;69531;37.974;23.708;2023-04-25T01:44:02;6.93;;;3.70;;
80213;SDS011;69531;37.974;23.708;2023-04-25T01:46:28;6.22;;;3.58;;
80213;SDS011;69531;37.974;23.708;2023-04-25T01:48:54;8.88;;;3.70;;
80213;SDS011;69531;37.974;23.708;2023-04-25T01:51:20;5.78;;;3.58;;
80213;SDS011;69531;37.974;23.708;2023-04-25T01:53:46;5.57;;;3.65;;
80213;SDS011;69531;37.974;23.708;2023-04-25T01:56:11;5.85;;;3.40;;
80213;SDS011;69531;37.974;23.708;2023-04-25T01:58:37;6.32;;;4.07;;
80213;SDS011;69531;37.974;23.708;2023-04-25T02:01:03;6.60;;;3.55;;
80213;SDS011;69531;37.974;23.708;2023-04-25T02:03:29;7.68;;;3.38;;
80213;SDS011;69531;37.974;23.708;2023-04-25T02:05:56;5.57;;;3.80;;
80213;SDS011;69531;37.974;23.708;2023-04-25T02:08:22;7.25;;;3.95;;
80213;SDS011;69531;37.974;23.708;2023-04-25T02:10:47;4.82;;;3.40;;
80213;SDS011;69531;37.974;23.708;2023-04-25T02:13:13;9.15;;;3.65;;
80213;SDS011;69531;37.974;23.708;2023-04-25T02:15:39;5.88;;;3.50;;
80213;SDS011;69531;37.974;23.708;2023-04-25T02:18:06;7.65;;;3.88;;
80213;SDS011;69531;37.974;23.708;2023-04-25T02:20:31;8.73;;;3.50;;
80213;SDS011;69531;37.974;23.708;2023-04-25T02:22:57;6.05;;;3.55;;
80213;SDS011;69531;37.974;23.708;2023-04-25T02:25:23;6.25;;;3.45;;
80213;SDS011;69531;37.974;23.708;2023-04-25T02:27:49;5.70;;;3.40;;
80213;SDS011;69531;37.974;23.708;2023-04-25T02:30:16;8.68;;;3.75;;
80213;SDS011;69531;37.974;23.708;2023-04-25T02:32:42;7.95;;;3.85;;
80213;SDS011;69531;37.974;23.708;2023-04-25T02:35:08;6.72;;;3.47;;
80213;SDS011;69531;37.974;23.708;2023-04-25T02:37:34;8.27;;;3.63;;
80213;SDS011;69531;37.974;23.708;2023-04-25T02:40:02;5.95;;;3.53;;
80213;SDS011;69531;37.974;23.708;2023-04-25T02:42:29;5.38;;;3.35;;
80213;SDS011;69531;37.974;23.708;2023-04-25T02:44:55;7.40;;;3.53;;
80213;SDS011;69531;37.974;23.708;2023-04-25T02:47:21;8.32;;;3.90;;
80213;SDS011;69531;37.974;23.708;2023-04-25T02:49:46;5.65;;;3.65;;
80213;SDS011;69531;37.974;23.708;2023-04-25T02:52:12;7.10;;;4.00;;
80213;SDS011;69531;37.974;23.708;2023-04-25T02:54:39;8.63;;;3.50;;
80213;SDS011;69531;37.974;23.708;2023-04-25T02:57:05;7.45;;;3.45;;
80213;SDS011;69531;37.974;23.708;2023-04-25T02:59:31;6.50;;;3.70;;
80213;SDS011;69531;37.974;23.708;2023-04-25T03:01:59;7.97;;;4.07;;
80213;SDS011;69531;37.974;23.708;2023-04-25T03:04:25;9.07;;;3.20;;
80213;SDS011;69531;37.974;23.708;2023-04-25T03:06:51;9.43;;;3.55;;
80213;SDS011;69531;37.974;23.708;2023-04-25T03:09:17;7.57;;;3.65;;
80213;SDS011;69531;37.974;23.708;2023-04-25T03:11:43;8.20;;;4.05;;
80213;SDS011;69531;37.974;23.708;2023-04-25T03:14:10;7.53;;;3.95;;
80213;SDS011;69531;37.974;23.708;2023-04-25T03:16:36;8.75;;;3.83;;
80213;SDS011;69531;37.974;23.708;2023-04-25T03:19:02;7.38;;;3.63;;
80213;SDS011;69531;37.974;23.708;2023-04-25T03:21:28;8.23;;;3.97;;
80213;SDS011;69531;37.974;23.708;2023-04-25T03:23:56;8.18;;;4.05;;
80213;SDS011;69531;37.974;23.708;2023-04-25T03:26:21;8.73;;;3.47;;
80213;SDS011;69531;37.974;23.708;2023-04-25T03:28:47;8.68;;;3.83;;
80213;SDS011;69531;37.974;23.708;2023-04-25T03:31:13;11.82;;;4.30;;
80213;SDS011;69531;37.974;23.708;2023-04-25T03:33:38;7.40;;;3.60;;
80213;SDS011;69531;37.974;23.708;2023-04-25T03:36:04;9.73;;;3.80;;
80213;SDS011;69531;37.974;23.708;2023-04-25T03:38:30;6.82;;;3.78;;
80213;SDS011;69531;37.974;23.708;2023-04-25T03:40:56;10.77;;;3.83;;
80213;SDS011;69531;37.974;23.708;2023-04-25T03:43:22;8.65;;;3.67;;
80213;SDS011;69531;37.974;23.708;2023-04-25T03:45:47;18.05;;;4.57;;
80213;SDS011;69531;37.974;23.708;2023-04-25T03:48:13;9.30;;;3.97;;
80213;SDS011;69531;37.974;23.708;2023-04-25T03:50:39;7.93;;;3.85;;
80213;SDS011;69531;37.974;23.708;2023-04-25T03:53:05;8.07;;;3.83;;
80213;SDS011;69531;37.974;23.708;2023-04-25T03:55:31;7.00;;;3.80;;
80213;SDS011;69531;37.974;23.708;2023-04-25T03:57:57;8.48;;;3.97;;
80213;SDS011;69531;37.974;23.708;2023-04-25T04:00:24;13.32;;;4.25;;
80213;SDS011;69531;37.974;23.708;2023-04-25T04:02:50;8.77;;;3.70;;
80213;SDS011;69531;37.974;23.708;2023-04-25T04:05:15;8.65;;;3.53;;
80213;SDS011;69531;37.974;23.708;2023-04-25T04:07:41;8.65;;;3.72;;
80213;SDS011;69531;37.974;23.708;2023-04-25T04:10:08;9.88;;;4.20;;
80213;SDS011;69531;37.974;23.708;2023-04-25T04:12:34;20.55;;;4.43;;
80213;SDS011;69531;37.974;23.708;2023-04-25T04:15:02;11.20;;;4.38;;
80213;SDS011;69531;37.974;23.708;2023-04-25T04:17:31;17.60;;;4.15;;
80213;SDS011;69531;37.974;23.708;2023-04-25T04:19:57;27.75;;;4.53;;
80213;SDS011;69531;37.974;23.708;2023-04-25T04:22:23;16.13;;;4.85;;
80213;SDS011;69531;37.974;23.708;2023-04-25T04:24:49;19.98;;;4.60;;
80213;SDS011;69531;37.974;23.708;2023-04-25T04:27:15;31.27;;;4.80;;
80213;SDS011;69531;37.974;23.708;2023-04-25T04:29:45;25.83;;;4.40;;
80213;SDS011;69531;37.974;23.708;2023-04-25T04:32:11;18.33;;;4.53;;
80213;SDS011;69531;37.974;23.708;2023-04-25T04:34:37;14.65;;;4.53;;
80213;SDS011;69531;37.974;23.708;2023-04-25T04:37:05;19.10;;;5.03;;
80213;SDS011;69531;37.974;23.708;2023-04-25T04:39:32;19.70;;;5.00;;
80213;SDS011;69531;37.974;23.708;2023-04-25T04:41:58;16.25;;;4.43;;
80213;SDS011;69531;37.974;23.708;2023-04-25T04:44:26;11.73;;;3.88;;
80213;SDS011;69531;37.974;23.708;2023-04-25T04:46:53;20.52;;;4.40;;
80213;SDS011;69531;37.974;23.708;2023-04-25T04:49:19;14.77;;;4.40;;
80213;SDS011;69531;37.974;23.708;2023-04-25T04:51:45;16.70;;;4.18;;
80213;SDS011;69531;37.974;23.708;2023-04-25T04:54:12;10.68;;;4.03;;
80213;SDS011;69531;37.974;23.708;2023-04-25T04:56:38;13.50;;;4.03;;
80213;SDS011;69531;37.974;23.708;2023-04-25T04:59:04;10.30;;;4.10;;
80213;SDS011;69531;37.974;23.708;2023-04-25T05:01:29;10.88;;;4.15;;
80213;SDS011;69531;37.974;23.708;2023-04-25T05:03:56;9.65;;;3.63;;
80213;SDS011;69531;37.974;23.708;2023-04-25T05:06:25;6.18;;;3.53;;
80213;SDS011;69531;37.974;23.708;2023-04-25T05:08:52;7.60;;;3.80;;
80213;SDS011;69531;37.974;23.708;2023-04-25T05:11:18;11.05;;;4.35;;
80213;SDS011;69531;37.974;23.708;2023-04-25T05:13:44;9.52;;;3.83;;
80213;SDS011;69531;37.974;23.708;2023-04-25T05:16:11;10.05;;;3.97;;
80213;SDS011;69531;37.974;23.708;2023-04-25T05:18:37;11.93;;;4.07;;
80213;SDS011;69531;37.974;23.708;2023-04-25T05:21:03;13.23;;;4.80;;
80213;SDS011;69531;37.974;23.708;2023-04-25T05:23:30;9.07;;;4.57;;
80213;SDS011;69531;37.974;23.708;2023-04-25T05:25:56;10.43;;;4.40;;
80213;SDS011;69531;37.974;23.708;2023-04-25T05:28:22;10.80;;;4.18;;
80213;SDS011;69531;37.974;23.708;2023-04-25T05:30:48;9.70;;;4.30;;
80213;SDS011;69531;37.974;23.708;2023-04-25T05:33:14;8.98;;;3.83;;
80213;SDS011;69531;37.974;23.708;2023-04-25T05:35:40;6.75;;;3.50;;
80213;SDS011;69531;37.974;23.708;2023-04-25T05:38:06;7.03;;;3.78;;
80213;SDS011;69531;37.974;23.708;2023-04-25T05:40:31;8.25;;;3.60;;
80213;SDS011;69531;37.974;23.708;2023-04-25T05:42:57;9.15;;;3.85;;
80213;SDS011;69531;37.974;23.708;2023-04-25T05:45:23;9.40;;;3.60;;
80213;SDS011;69531;37.974;23.708;2023-04-25T05:47:49;7.05;;;3.83;;
80213;SDS011;69531;37.974;23.708;2023-04-25T05:50:15;5.72;;;3.28;;
80213;SDS011;69531;37.974;23.708;2023-04-25T05:52:40;6.47;;;3.75;;
80213;SDS011;69531;37.974;23.708;2023-04-25T05:55:06;6.57;;;3.22;;
80213;SDS011;69531;37.974;23.708;2023-04-25T05:57:32;6.75;;;3.17;;
80213;SDS011;69531;37.974;23.708;2023-04-25T05:59:58;6.50;;;3.10;;
80213;SDS011;69531;37.974;23.708;2023-04-25T06:02:24;6.03;;;2.92;;
80213;SDS011;69531;37.974;23.708;2023-04-25T06:04:50;5.25;;;2.50;;
80213;SDS011;69531;37.974;23.708;2023-04-25T06:07:16;5.85;;;2.80;;
80213;SDS011;69531;37.974;23.708;2023-04-25T06:09:43;4.53;;;2.60;;
80213;SDS011;69531;37.974;23.708;2023-04-25T06:12:09;6.10;;;2.30;;
80213;SDS011;69531;37.974;23.708;2023-04-25T06:14:35;5.20;;;2.13;;
80213;SDS011;69531;37.974;23.708;2023-04-25T06:17:00;5.50;;;2.42;;
80213;SDS011;69531;37.974;23.708;2023-04-25T06:19:32;3.95;;;2.00;;
80213;SDS011;69531;37.974;23.708;2023-04-25T06:21:58;4.18;;;2.15;;
80213;SDS011;69531;37.974;23.708;2023-04-25T06:24:24;3.75;;;1.80;;
80213;SDS011;69531;37.974;23.708;2023-04-25T06:26:49;6.00;;;2.20;;
80213;SDS011;69531;37.974;23.708;2023-04-25T06:29:15;4.85;;;1.92;;
80213;SDS011;69531;37.974;23.708;2023-04-25T06:31:41;3.55;;;1.77;;
80213;SDS011;69531;37.974;23.708;2023-04-25T06:34:06;3.33;;;1.88;;
80213;SDS011;69531;37.974;23.708;2023-04-25T06:36:32;4.38;;;2.17;;
80213;SDS011;69531;37.974;23.708;2023-04-25T06:38:58;4.25;;;1.80;;
80213;SDS011;69531;37.974;23.708;2023-04-25T06:41:24;3.20;;;1.60;;
80213;SDS011;69531;37.974;23.708;2023-04-25T06:43:49;2.83;;;1.58;;
80213;SDS011;69531;37.974;23.708;2023-04-25T06:46:15;3.20;;;1.60;;
80213;SDS011;69531;37.974;23.708;2023-04-25T06:48:41;2.95;;;1.60;;
80213;SDS011;69531;37.974;23.708;2023-04-25T06:51:07;2.63;;;1.50;;
80213;SDS011;69531;37.974;23.708;2023-04-25T06:53:32;3.38;;;1.70;;
80213;SDS011;69531;37.974;23.708;2023-04-25T06:55:58;2.67;;;1.73;;
80213;SDS011;69531;37.974;23.708;2023-04-25T06:58:24;4.82;;;1.40;;
80213;SDS011;69531;37.974;23.708;2023-04-25T07:00:51;2.95;;;1.50;;
80213;SDS011;69531;37.974;23.708;2023-04-25T07:03:17;4.47;;;1.70;;
80213;SDS011;69531;37.974;23.708;2023-04-25T07:05:42;5.05;;;1.95;;
80213;SDS011;69531;37.974;23.708;2023-04-25T07:08:08;4.03;;;1.92;;
80213;SDS011;69531;37.974;23.708;2023-04-25T07:10:34;5.53;;;2.28;;
80213;SDS011;69531;37.974;23.708;2023-04-25T07:13:00;3.10;;;2.42;;
80213;SDS011;69531;37.974;23.708;2023-04-25T07:15:26;6.72;;;1.90;;
80213;SDS011;69531;37.974;23.708;2023-04-25T07:17:52;3.63;;;1.92;;
80213;SDS011;69531;37.974;23.708;2023-04-25T07:20:17;5.18;;;2.17;;
80213;SDS011;69531;37.974;23.708;2023-04-25T07:22:43;3.85;;;2.10;;
80213;SDS011;69531;37.974;23.708;2023-04-25T07:25:09;4.72;;;1.98;;
80213;SDS011;69531;37.974;23.708;2023-04-25T07:27:35;4.40;;;2.10;;
80213;SDS011;69531;37.974;23.708;2023-04-25T07:30:01;4.03;;;1.67;;
80213;SDS011;69531;37.974;23.708;2023-04-25T07:32:27;3.38;;;1.73;;
80213;SDS011;69531;37.974;23.708;2023-04-25T07:34:53;5.47;;;1.92;;
80213;SDS011;69531;37.974;23.708;2023-04-25T07:37:18;5.25;;;1.90;;
80213;SDS011;69531;37.974;23.708;2023-04-25T07:39:44;2.33;;;1.48;;
80213;SDS011;69531;37.974;23.708;2023-04-25T07:42:14;3.93;;;1.70;;
80213;SDS011;69531;37.974;23.708;2023-04-25T07:44:40;3.45;;;1.70;;
80213;SDS011;69531;37.974;23.708;2023-04-25T07:47:07;5.57;;;2.03;;
80213;SDS011;69531;37.974;23.708;2023-04-25T07:49:34;4.43;;;1.88;;
80213;SDS011;69531;37.974;23.708;2023-04-25T07:52:00;7.53;;;1.90;;
80213;SDS011;69531;37.974;23.708;2023-04-25T07:54:27;2.28;;;1.65;;
80213;SDS011;69531;37.974;23.708;2023-04-25T07:56:53;4.68;;;1.73;;
80213;SDS011;69531;37.974;23.708;2023-04-25T07:59:19;2.85;;;1.70;;
80213;SDS011;69531;37.974;23.708;2023-04-25T08:01:45;3.33;;;1.85;;
80213;SDS011;69531;37.974;23.708;2023-04-25T08:04:10;6.07;;;1.73;;
80213;SDS011;69531;37.974;23.708;2023-04-25T08:06:37;3.63;;;2.08;;
80213;SDS011;69531;37.974;23.708;2023-04-25T08:09:02;5.18;;;1.90;;
80213;SDS011;69531;37.974;23.708;2023-04-25T08:11:29;5.57;;;1.80;;
80213;SDS011;69531;37.974;23.708;2023-04-25T08:13:57;2.42;;;1.60;;
80213;SDS011;69531;37.974;23.708;2023-04-25T08:16:23;3.72;;;1.60;;
80213;SDS011;69531;37.974;23.708;2023-04-25T08:18:49;3.55;;;1.42;;
80213;SDS011;69531;37.974;23.708;2023-04-25T08:21:19;3.33;;;1.65;;
80213;SDS011;69531;37.974;23.708;2023-04-25T08:23:45;2.70;;;1.38;;
80213;SDS011;69531;37.974;23.708;2023-04-25T08:26:11;3.40;;;1.70;;
80213;SDS011;69531;37.974;23.708;2023-04-25T08:28:37;4.65;;;1.73;;
80213;SDS011;69531;37.974;23.708;2023-04-25T08:31:02;3.05;;;1.70;;
80213;SDS011;69531;37.974;23.708;2023-04-25T08:33:28;3.55;;;1.65;;
80213;SDS011;69531;37.974;23.708;2023-04-25T08:35:55;4.07;;;1.70;;
80213;SDS011;69531;37.974;23.708;2023-04-25T08:38:20;3.25;;;1.52;;
80213;SDS011;69531;37.974;23.708;2023-04-25T08:40:48;3.40;;;1.80;;
80213;SDS011;69531;37.974;23.708;2023-04-25T08:43:17;4.35;;;1.80;;
80213;SDS011;69531;37.974;23.708;2023-04-25T08:45:44;3.38;;;1.75;;
80213;SDS011;69531;37.974;23.708;2023-04-25T08:48:15;5.07;;;1.65;;
80213;SDS011;69531;37.974;23.708;2023-04-25T08:50:45;4.68;;;1.60;;
80213;SDS011;69531;37.974;23.708;2023-04-25T08:53:17;4.28;;;1.90;;
80213;SDS011;69531;37.974;23.708;2023-04-25T08:55:50;3.97;;;1.50;;
80213;SDS011;69531;37.974;23.708;2023-04-25T08:58:18;4.50;;;1.58;;
80213;SDS011;69531;37.974;23.708;2023-04-25T09:00:45;2.60;;;1.40;;
80213;SDS011;69531;37.974;23.708;2023-04-25T09:03:11;4.93;;;1.73;;
80213;SDS011;69531;37.974;23.708;2023-04-25T09:05:38;3.05;;;1.35;;
80213;SDS011;69531;37.974;23.708;2023-04-25T09:08:05;5.82;;;1.60;;
80213;SDS011;69531;37.974;23.708;2023-04-25T09:10:31;2.40;;;1.42;;
80213;SDS011;69531;37.974;23.708;2023-04-25T09:15:50;4.50;;;1.60;;
80213;SDS011;69531;37.974;23.708;2023-04-25T09:18:24;4.70;;;1.55;;
80213;SDS011;69531;37.974;23.708;2023-04-25T09:20:54;5.32;;;1.55;;
80213;SDS011;69531;37.974;23.708;2023-04-25T09:25:49;4.30;;;1.50;;
80213;SDS011;69531;37.974;23.708;2023-04-25T09:28:28;3.00;;;1.60;;
80213;SDS011;69531;37.974;23.708;2023-04-25T09:30:55;3.50;;;1.80;;
80213;SDS011;69531;37.974;23.708;2023-04-25T09:33:26;3.30;;;1.60;;
80213;SDS011;69531;37.974;23.708;2023-04-25T09:35:56;4.25;;;1.70;;
80213;SDS011;69531;37.974;23.708;2023-04-25T09:38:45;3.03;;;1.70;;
80213;SDS011;69531;37.974;23.708;2023-04-25T09:41:11;8.05;;;2.00;;
80213;SDS011;69531;37.974;23.708;2023-04-25T09:43:38;4.25;;;1.80;;
80213;SDS011;69531;37.974;23.708;2023-04-25T09:46:10;6.05;;;1.98;;
80213;SDS011;69531;37.974;23.708;2023-04-25T09:48:36;4.47;;;1.90;;
80213;SDS011;69531;37.974;23.708;2023-04-25T09:53:36;5.05;;;2.20;;
80213;SDS011;69531;37.974;23.708;2023-04-25T09:56:10;4.35;;;1.85;;
80213;SDS011;69531;37.974;23.708;2023-04-25T09:58:38;4.43;;;2.05;;
80213;SDS011;69531;37.974;23.708;2023-04-25T10:01:08;5.63;;;1.80;;
80213;SDS011;69531;37.974;23.708;2023-04-25T10:03:36;4.55;;;1.83;;
80213;SDS011;69531;37.974;23.708;2023-04-25T10:06:07;4.72;;;2.20;;
80213;SDS011;69531;37.974;23.708;2023-04-25T10:08:35;6.88;;;1.90;;
80213;SDS011;69531;37.974;23.708;2023-04-25T10:11:03;2.15;;;1.50;;
80213;SDS011;69531;37.974;23.708;2023-04-25T10:13:30;3.55;;;1.83;;
80213;SDS011;69531;37.974;23.708;2023-04-25T10:15:57;5.40;;;1.92;;
80213;SDS011;69531;37.974;23.708;2023-04-25T10:18:25;4.10;;;1.50;;
80213;SDS011;69531;37.974;23.708;2023-04-25T10:20:53;3.78;;;1.90;;
80213;SDS011;69531;37.974;23.708;2023-04-25T10:23:30;2.67;;;1.60;;
80213;SDS011;69531;37.974;23.708;2023-04-25T10:25:57;3.20;;;1.83;;
80213;SDS011;69531;37.974;23.708;2023-04-25T10:28:23;3.30;;;1.58;;
80213;SDS011;69531;37.974;23.708;2023-04-25T10:31:03;3.28;;;1.65;;
80213;SDS011;69531;37.974;23.708;2023-04-25T10:33:32;2.67;;;1.87;;
80213;SDS011;69531;37.974;23.708;2023-04-25T10:35:58;6.05;;;1.58;;
80213;SDS011;69531;37.974;23.708;2023-04-25T10:38:33;2.70;;;1.70;;
80213;SDS011;69531;37.974;23.708;2023-04-25T10:41:02;3.65;;;1.63;;
80213;SDS011;69531;37.974;23.708;2023-04-25T10:43:49;6.43;;;2.05;;
80213;SDS011;69531;37.974;23.708;2023-04-25T10:53:58;3.50;;;1.77;;
80213;SDS011;69531;37.974;23.708;2023-04-25T11:01:37;5.05;;;1.70;;
80213;SDS011;69531;37.974;23.708;2023-04-25T11:04:05;5.22;;;1.90;;
80213;SDS011;69531;37.974;23.708;2023-04-25T11:09:35;4.32;;;1.67;;
80213;SDS011;69531;37.974;23.708;2023-04-25T11:12:03;3.35;;;1.80;;
80213;SDS011;69531;37.974;23.708;2023-04-25T11:14:30;4.85;;;2.03;;
80213;SDS011;69531;37.974;23.708;2023-04-25T11:16:56;2.67;;;1.52;;
80213;SDS011;69531;37.974;23.708;2023-04-25T11:19:23;3.83;;;2.00;;
80213;SDS011;69531;37.974;23.708;2023-04-25T11:21:50;2.20;;;1.50;;
80213;SDS011;69531;37.974;23.708;2023-04-25T11:24:19;3.22;;;1.67;;
80213;SDS011;69531;37.974;23.708;2023-04-25T11:26:50;4.72;;;1.50;;
80213;SDS011;69531;37.974;23.708;2023-04-25T11:29:16;4.90;;;1.80;;
80213;SDS011;69531;37.974;23.708;2023-04-25T11:31:45;2.78;;;1.52;;
80213;SDS011;69531;37.974;23.708;2023-04-25T11:34:11;4.70;;;1.83;;
80213;SDS011;69531;37.974;23.708;2023-04-25T11:36:38;3.67;;;1.70;;
80213;SDS011;69531;37.974;23.708;2023-04-25T11:39:25;3.67;;;1.70;;
80213;SDS011;69531;37.974;23.708;2023-04-25T11:41:52;2.95;;;1.70;;
80213;SDS011;69531;37.974;23.708;2023-04-25T11:44:19;3.75;;;1.60;;
80213;SDS011;69531;37.974;23.708;2023-04-25T11:46:46;3.67;;;1.65;;
80213;SDS011;69531;37.974;23.708;2023-04-25T11:49:12;3.85;;;1.55;;
80213;SDS011;69531;37.974;23.708;2023-04-25T11:51:43;2.50;;;1.33;;
80213;SDS011;69531;37.974;23.708;2023-04-25T11:54:10;3.28;;;1.52;;
80213;SDS011;69531;37.974;23.708;2023-04-25T11:56:36;2.35;;;1.30;;
80213;SDS011;69531;37.974;23.708;2023-04-25T11:59:05;2.47;;;1.40;;
80213;SDS011;69531;37.974;23.708;2023-04-25T12:01:32;3.55;;;1.35;;
80213;SDS011;69531;37.974;23.708;2023-04-25T12:06:40;4.53;;;1.63;;
80213;SDS011;69531;37.974;23.708;2023-04-25T12:09:10;5.22;;;1.70;;
80213;SDS011;69531;37.974;23.708;2023-04-25T12:11:41;4.25;;;1.52;;
80213;SDS011;69531;37.974;23.708;2023-04-25T12:14:08;4.05;;;1.60;;
80213;SDS011;69531;37.974;23.708;2023-04-25T12:16:44;2.50;;;1.40;;
80213;SDS011;69531;37.974;23.708;2023-04-25T12:19:14;3.50;;;1.40;;
80213;SDS011;69531;37.974;23.708;2023-04-25T12:21:41;3.55;;;1.60;;
80213;SDS011;69531;37.974;23.708;2023-04-25T12:24:15;2.75;;;1.50;;
80213;SDS011;69531;37.974;23.708;2023-04-25T12:27:01;4.07;;;2.05;;
80213;SDS011;69531;37.974;23.708;2023-04-25T12:29:29;4.50;;;2.10;;
80213;SDS011;69531;37.974;23.708;2023-04-25T12:31:56;4.60;;;2.08;;
80213;SDS011;69531;37.974;23.708;2023-04-25T12:34:22;5.28;;;2.10;;
80213;SDS011;69531;37.974;23.708;2023-04-25T12:36:49;4.18;;;1.70;;
80213;SDS011;69531;37.974;23.708;2023-04-25T12:41:44;5.00;;;1.88;;
80213;SDS011;69531;37.974;23.708;2023-04-25T12:44:10;4.25;;;1.88;;
80213;SDS011;69531;37.974;23.708;2023-04-25T12:46:36;4.28;;;1.73;;
80213;SDS011;69531;37.974;23.708;2023-04-25T12:49:03;4.40;;;1.70;;
80213;SDS011;69531;37.974;23.708;2023-04-25T12:51:29;6.50;;;1.98;;
80213;SDS011;69531;37.974;23.708;2023-04-25T12:53:55;2.95;;;1.67;;
80213;SDS011;69531;37.974;23.708;2023-04-25T12:56:21;2.88;;;1.70;;
80213;SDS011;69531;37.974;23.708;2023-04-25T12:58:56;3.97;;;1.95;;
80213;SDS011;69531;37.974;23.708;2023-04-25T13:01:22;4.70;;;1.83;;
80213;SDS011;69531;37.974;23.708;2023-04-25T13:03:48;2.63;;;1.50;;
80213;SDS011;69531;37.974;23.708;2023-04-25T13:06:15;4.47;;;1.98;;
80213;SDS011;69531;37.974;23.708;2023-04-25T13:08:41;3.17;;;1.70;;
80213;SDS011;69531;37.974;23.708;2023-04-25T13:11:07;2.22;;;1.48;;
80213;SDS011;69531;37.974;23.708;2023-04-25T13:13:33;2.30;;;1.50;;
80213;SDS011;69531;37.974;23.708;2023-04-25T13:16:03;3.75;;;1.70;;
80213;SDS011;69531;37.974;23.708;2023-04-25T13:18:30;2.55;;;1.55;;
80213;SDS011;69531;37.974;23.708;2023-04-25T13:20:56;3.63;;;1.70;;
80213;SDS011;69531;37.974;23.708;2023-04-25T13:23:22;4.22;;;1.80;;
80213;SDS011;69531;37.974;23.708;2023-04-25T13:25:50;2.55;;;1.67;;
80213;SDS011;69531;37.974;23.708;2023-04-25T13:28:15;5.57;;;2.05;;
80213;SDS011;69531;37.974;23.708;2023-04-25T13:30:41;3.60;;;1.95;;
80213;SDS011;69531;37.974;23.708;2023-04-25T13:33:07;2.65;;;1.60;;
80213;SDS011;69531;37.974;23.708;2023-04-25T13:35:33;3.92;;;1.80;;
80213;SDS011;69531;37.974;23.708;2023-04-25T13:38:00;4.97;;;2.10;;
80213;SDS011;69531;37.974;23.708;2023-04-25T13:40:26;2.95;;;1.80;;
80213;SDS011;69531;37.974;23.708;2023-04-25T13:42:52;3.35;;;1.98;;
80213;SDS011;69531;37.974;23.708;2023-04-25T13:45:19;5.13;;;1.67;;
80213;SDS011;69531;37.974;23.708;2023-04-25T13:47:45;5.03;;;1.63;;
80213;SDS011;69531;37.974;23.708;2023-04-25T13:50:11;4.82;;;1.98;;
80213;SDS011;69531;37.974;23.708;2023-04-25T13:52:38;3.22;;;1.50;;
80213;SDS011;69531;37.974;23.708;2023-04-25T13:55:05;2.63;;;1.58;;
80213;SDS011;69531;37.974;23.708;2023-04-25T13:57:32;4.72;;;1.73;;
80213;SDS011;69531;37.974;23.708;2023-04-25T13:59:59;3.38;;;1.60;;
80213;SDS011;69531;37.974;23.708;2023-04-25T14:02:29;2.72;;;1.50;;
80213;SDS011;69531;37.974;23.708;2023-04-25T14:04:55;2.60;;;1.58;;
80213;SDS011;69531;37.974;23.708;2023-04-25T14:07:21;2.08;;;1.42;;
80213;SDS011;69531;37.974;23.708;2023-04-25T14:09:46;2.78;;;1.50;;
80213;SDS011;69531;37.974;23.708;2023-04-25T14:12:12;3.20;;;1.70;;
80213;SDS011;69531;37.974;23.708;2023-04-25T14:14:38;2.92;;;1.73;;
80213;SDS011;69531;37.974;23.708;2023-04-25T14:17:04;2.92;;;1.60;;
80213;SDS011;69531;37.974;23.708;2023-04-25T14:19:31;3.83;;;1.50;;
80213;SDS011;69531;37.974;23.708;2023-04-25T14:21:57;4.22;;;1.92;;
80213;SDS011;69531;37.974;23.708;2023-04-25T14:24:22;3.70;;;1.90;;
80213;SDS011;69531;37.974;23.708;2023-04-25T14:26:48;2.88;;;1.77;;
80213;SDS011;69531;37.974;23.708;2023-04-25T14:29:14;2.78;;;1.58;;
80213;SDS011;69531;37.974;23.708;2023-04-25T14:31:39;4.50;;;1.63;;
80213;SDS011;69531;37.974;23.708;2023-04-25T14:34:05;4.45;;;1.70;;
80213;SDS011;69531;37.974;23.708;2023-04-25T14:36:32;3.30;;;1.73;;
80213;SDS011;69531;37.974;23.708;2023-04-25T14:38:58;3.60;;;1.90;;
80213;SDS011;69531;37.974;23.708;2023-04-25T14:41:25;2.30;;;1.60;;
80213;SDS011;69531;37.974;23.708;2023-04-25T14:43:51;3.00;;;1.63;;
80213;SDS011;69531;37.974;23.708;2023-04-25T14:46:21;4.18;;;1.88;;
80213;SDS011;69531;37.974;23.708;2023-04-25T14:48:48;4.45;;;1.90;;
80213;SDS011;69531;37.974;23.708;2023-04-25T14:51:14;4.93;;;1.92;;
80213;SDS011;69531;37.974;23.708;2023-04-25T14:53:40;3.47;;;1.83;;
80213;SDS011;69531;37.974;23.708;2023-04-25T14:56:06;4.28;;;1.70;;
80213;SDS011;69531;37.974;23.708;2023-04-25T14:58:33;2.40;;;1.60;;
80213;SDS011;69531;37.974;23.708;2023-04-25T15:00:59;3.17;;;1.98;;